• Join FlightAware (Why Join?)
  • Login
  • US Flag 
04:53AM EDT


 

Airport Tracker/Info


-or-


 

Live Flight TrackerFlight Track Log ✈ LIA553 ✈ 10-Apr-2013 ✈ TIST / STT - TQPF / AXA

Flight Track Log - Related Links

Times and Time Zones

All times are in EDT time to prevent confusion due to time zone crossing. See the LIA553 flight status page for this flight to view local times or setup timezone preferences in your user account.

Time Position Orientation Groundspeed Altitude Reporting Facility
EDT Latitude Longitude Course Direction KTS MPH feet Rate Location/Type
01:45PM 18.3333 -64.9667 66° East 90 104 100  Level San Juan Center
01:46PM 18.3167 -64.9333 118° Southeast 120 138 1,600 1,560 Climbing San Juan Center
01:47PM 18.3167 -64.9000 90° East 120 138 3,300 1,320 Climbing San Juan Center
01:48PM 18.3000 -64.8500 109° East 150 173 4,300 1,020 Climbing San Juan Center
01:49PM 18.3000 -64.8000 90° East 180 207 5,400 1,200 Climbing San Juan Center
01:50PM 18.4301 -64.7909 66° East  Level FlightAware Approximate
01:50PM 18.3000 -64.7500 90° East 180 207 6,700  Level San Juan Center
01:51PM 18.3167 -64.7000 71° East 180 207 8,000 1,140 Climbing San Juan Center
01:52PM 18.3167 -64.6333 90° East 180 207 9,000 480 Climbing San Juan Center
01:53PM 18.3167 -64.5833 90° East 220 253 9,000  Level San Juan Center
01:54PM 18.3333 -64.5000 78° East 240 276 9,000  Level San Juan Center
01:55PM 18.3333 -64.4333 90° East 240 276 9,000  Level San Juan Center
01:56PM 18.3333 -64.3667 90° East 250 288 9,000  Level San Juan Center
01:57PM 18.3333 -64.2833 90° East 270 311 9,000  Level San Juan Center
01:58PM 18.3500 -64.2167 75° East 250 288 9,000  Level San Juan Center
01:59PM 18.3500 -64.1333 90° East 250 288 9,000  Level San Juan Center
02:00PM 18.3500 -64.0667 90° East 250 288 9,000  Level San Juan Center
02:01PM 18.3667 -64.0000 75° East 250 288 9,000  Level San Juan Center
02:02PM 18.3667 -63.9167 90° East 250 288 9,000  Level San Juan Center
02:03PM 18.3667 -63.8500 90° East 250 288 9,000  Level San Juan Center
02:04PM 18.3667 -63.7667 90° East 250 288 9,000  Level San Juan Center
02:05PM 18.3833 -63.7000 75° East 220 253 9,100 60 Climbing San Juan Center